createdAt,value
2019-04-22T00:01:50.287Z,14.80
2019-04-22T00:06:12.954Z,14.60
2019-04-22T00:10:19.423Z,14.50
2019-04-22T00:14:17.894Z,13.70
2019-04-22T00:18:30.469Z,14.20
2019-04-22T00:22:36.918Z,14.20
2019-04-22T00:26:38.040Z,14.60
2019-04-22T00:30:34.116Z,14.50
2019-04-22T00:34:44.492Z,14.30
2019-04-22T00:38:44.269Z,14.40
2019-04-22T00:42:47.732Z,14.40
2019-04-22T00:46:52.304Z,14.20
2019-04-22T00:55:01.886Z,13.90
2019-04-22T00:59:04.421Z,13.30
2019-04-22T01:03:03.031Z,13.60
2019-04-22T01:07:06.068Z,13.70
2019-04-22T01:11:14.820Z,14.10
2019-04-22T01:15:17.597Z,14.10
2019-04-22T01:19:15.063Z,13.60
2019-04-22T01:23:19.196Z,13.70
2019-04-22T01:27:12.948Z,13.60
2019-04-22T01:31:04.784Z,13.50
2019-04-22T01:35:13.344Z,13.30
2019-04-22T01:39:35.093Z,13.30
2019-04-22T01:43:50.320Z,13.40
2019-04-22T01:47:41.422Z,13.50
2019-04-22T01:51:51.764Z,13.00
2019-04-22T01:55:43.953Z,13.20
2019-04-22T01:59:40.406Z,13.00
2019-04-22T02:03:54.617Z,13.10
2019-04-22T02:07:49.314Z,12.90
2019-04-22T02:12:02.918Z,12.90
2019-04-22T02:15:58.687Z,12.80
2019-04-22T02:20:05.059Z,12.90
2019-04-22T02:24:09.057Z,12.40
2019-04-22T02:28:18.415Z,12.30
2019-04-22T02:32:19.432Z,12.10
2019-04-22T02:40:25.594Z,12.50
2019-04-22T02:44:26.450Z,12.80
2019-04-22T02:48:53.336Z,12.70
2019-04-22T02:52:35.406Z,12.60
2019-04-22T02:56:31.762Z,11.80
2019-04-22T03:00:38.028Z,11.90
2019-04-22T03:04:37.639Z,12.50
2019-04-22T03:08:45.968Z,12.50
2019-04-22T03:12:49.031Z,12.50
2019-04-22T03:16:43.185Z,11.90
2019-04-22T03:25:24.281Z,11.80
2019-04-22T03:28:57.011Z,12.10
2019-04-22T03:41:16.998Z,12.10
2019-04-22T03:45:19.291Z,11.80
2019-04-22T04:01:29.878Z,11.80
2019-04-22T04:05:37.627Z,12.00
2019-04-22T04:09:44.337Z,12.00
2019-04-22T04:13:23.116Z,11.90
2019-04-22T04:17:36.868Z,11.80
2019-04-22T04:25:42.513Z,11.60
2019-04-22T04:42:05.146Z,11.70
2019-04-22T04:45:55.476Z,11.90
2019-04-22T04:50:03.329Z,12.00
2019-04-22T04:54:08.049Z,11.90
2019-04-22T05:02:09.556Z,12.30
2019-04-22T05:14:17.720Z,12.20
2019-04-22T05:22:14.955Z,13.40
2019-04-22T05:26:26.066Z,13.70
2019-04-22T05:30:26.803Z,13.70
2019-04-22T05:34:22.833Z,14.10
2019-04-22T05:38:27.153Z,14.30
2019-04-22T05:42:26.386Z,14.50
2019-04-22T05:46:30.516Z,14.40
2019-04-22T05:50:27.052Z,14.80
2019-04-22T05:58:46.505Z,15.20
2019-04-22T06:02:53.491Z,16.00
2019-04-22T06:06:46.895Z,16.60
2019-04-22T06:10:52.059Z,17.00
2019-04-22T06:14:54.037Z,16.60
2019-04-22T06:19:02.737Z,17.10
2019-04-22T06:23:04.114Z,18.10
2019-04-22T06:27:08.024Z,18.80
2019-04-22T06:31:10.758Z,19.10
2019-04-22T06:35:19.811Z,19.70
2019-04-22T06:39:14.579Z,20.30
2019-04-22T06:43:20.090Z,20.80
2019-04-22T06:47:26.967Z,21.30
2019-04-22T06:51:19.858Z,22.00
2019-04-22T06:55:33.278Z,22.10
2019-04-22T06:59:34.420Z,22.90
2019-04-22T07:03:45.893Z,22.70
2019-04-22T07:07:34.042Z,22.90
2019-04-22T07:11:33.345Z,21.70
2019-04-22T07:23:51.401Z,22.40
2019-04-22T07:27:47.420Z,22.00
2019-04-22T07:31:56.226Z,22.30
2019-04-22T07:36:18.438Z,21.10
2019-04-22T07:39:50.135Z,22.30
2019-04-22T07:44:13.419Z,22.90
2019-04-22T07:48:13.056Z,22.60
2019-04-22T07:52:05.157Z,22.40
2019-04-22T07:56:05.465Z,21.10
2019-04-22T08:08:20.060Z,22.80
2019-04-22T08:12:20.251Z,23.30
2019-04-22T08:16:26.290Z,22.80
2019-04-22T08:20:28.960Z,22.70
2019-04-22T08:24:29.301Z,22.20
2019-04-22T08:28:32.000Z,23.10
2019-04-22T08:32:34.594Z,22.30
2019-04-22T08:36:40.819Z,23.20
2019-04-22T08:40:56.027Z,22.30
2019-04-22T08:48:51.585Z,22.20
2019-04-22T08:52:52.483Z,24.10
2019-04-22T09:00:56.896Z,23.30
2019-04-22T09:05:10.552Z,23.60
2019-04-22T09:13:05.894Z,23.40
2019-04-22T09:17:13.356Z,24.00
2019-04-22T09:21:24.018Z,22.90
2019-04-22T09:25:08.038Z,22.90
2019-04-22T09:29:20.852Z,23.80
2019-04-22T09:33:21.039Z,23.30
2019-04-22T09:37:26.877Z,23.70
2019-04-22T09:41:27.078Z,23.90
2019-04-22T09:45:32.404Z,24.00
2019-04-22T09:49:44.766Z,22.80
2019-04-22T09:53:47.017Z,24.10
2019-04-22T09:57:38.150Z,24.90
2019-04-22T10:01:48.800Z,24.00
2019-04-22T10:05:52.101Z,23.30
2019-04-22T10:14:01.176Z,23.20
2019-04-22T10:17:57.929Z,23.40
2019-04-22T10:21:56.896Z,24.80
2019-04-22T10:26:04.871Z,24.70
2019-04-22T10:30:04.225Z,24.70
2019-04-22T10:33:56.152Z,23.80
2019-04-22T10:37:46.090Z,23.10
2019-04-22T10:41:48.499Z,23.70
2019-04-22T10:45:50.272Z,23.00
2019-04-22T10:49:52.269Z,23.80
2019-04-22T10:53:53.495Z,24.10
2019-04-22T10:57:54.754Z,24.40
2019-04-22T11:01:56.153Z,24.90
2019-04-22T11:05:57.209Z,23.70
2019-04-22T11:10:17.558Z,24.20
2019-04-22T11:14:01.991Z,25.40
2019-04-22T11:18:05.251Z,25.70
2019-04-22T11:22:16.199Z,25.70
2019-04-22T11:26:10.141Z,26.10
2019-04-22T11:30:13.422Z,25.20
2019-04-22T11:34:15.390Z,25.80
2019-04-22T11:38:17.264Z,25.30
2019-04-22T11:42:18.605Z,25.30
2019-04-22T11:46:21.009Z,26.30
2019-04-22T11:50:24.209Z,26.30
2019-04-22T11:54:25.738Z,26.50
2019-04-22T11:58:27.044Z,26.70
2019-04-22T12:02:31.200Z,26.00
2019-04-22T12:06:33.626Z,26.80
2019-04-22T12:10:42.621Z,25.50
2019-04-22T12:14:38.257Z,26.30
2019-04-22T12:18:39.640Z,25.60
2019-04-22T12:22:41.073Z,26.30
2019-04-22T12:26:42.455Z,27.70
2019-04-22T12:31:03.870Z,27.70
2019-04-22T12:35:07.183Z,27.30
2019-04-22T12:39:09.688Z,28.00
2019-04-22T12:43:12.852Z,27.50
2019-04-22T12:47:14.903Z,27.50
2019-04-22T12:51:16.085Z,28.00
2019-04-22T12:55:26.085Z,28.60
2019-04-22T12:59:27.970Z,28.50
2019-04-22T13:03:29.399Z,28.30
2019-04-22T13:07:31.523Z,27.80
2019-04-22T13:11:36.334Z,27.80
2019-04-22T13:15:36.916Z,28.10
2019-04-22T13:19:38.467Z,27.50
2019-04-22T13:23:39.463Z,27.90
2019-04-22T13:27:40.542Z,28.00
2019-04-22T13:31:42.502Z,28.10
2019-04-22T13:35:45.620Z,28.40
2019-04-22T13:39:47.325Z,28.30
2019-04-22T13:43:49.328Z,28.80
2019-04-22T13:48:11.124Z,28.50
2019-04-22T13:52:35.680Z,28.50
2019-04-22T13:56:20.568Z,28.30
2019-04-22T14:00:02.231Z,28.70
2019-04-22T14:04:06.940Z,29.10
2019-04-22T14:08:08.768Z,27.60
2019-04-22T14:12:13.685Z,28.20
2019-04-22T14:16:15.143Z,29.10
2019-04-22T14:20:18.560Z,29.00
2019-04-22T14:24:19.842Z,28.20
2019-04-22T14:28:22.965Z,27.80
2019-04-22T14:32:28.001Z,27.50
2019-04-22T14:36:27.554Z,28.30
2019-04-22T14:40:30.281Z,28.60
2019-04-22T14:48:56.675Z,28.60
2019-04-22T14:52:59.444Z,29.30
2019-04-22T14:56:40.449Z,27.50
2019-04-22T15:00:42.365Z,27.70
2019-04-22T15:04:43.627Z,28.10
2019-04-22T15:08:45.144Z,27.60
2019-04-22T15:12:49.811Z,28.00
2019-04-22T15:16:55.047Z,28.40
2019-04-22T15:21:00.413Z,26.70
2019-04-22T15:25:00.993Z,26.70
2019-04-22T15:29:03.127Z,26.70
2019-04-22T15:33:05.508Z,26.10
2019-04-22T15:37:06.752Z,26.50
2019-04-22T15:41:07.785Z,27.30
2019-04-22T15:45:09.651Z,26.90
2019-04-22T15:49:11.892Z,26.50
2019-04-22T15:53:13.799Z,25.50
2019-04-22T15:57:15.087Z,25.90
2019-04-22T16:01:23.945Z,26.10
2019-04-22T16:05:20.288Z,26.40
2019-04-22T16:09:22.777Z,25.40
2019-04-22T16:13:27.329Z,26.30
2019-04-22T16:17:26.702Z,26.60
2019-04-22T16:21:38.219Z,25.80
2019-04-22T16:25:47.351Z,26.10
2019-04-22T16:29:49.742Z,26.50
2019-04-22T16:33:52.357Z,26.40
2019-04-22T16:37:54.955Z,25.50
2019-04-22T16:41:56.983Z,25.80
2019-04-22T16:45:58.279Z,26.00
2019-04-22T16:49:59.683Z,25.50
2019-04-22T16:54:02.169Z,25.10
2019-04-22T16:58:05.276Z,25.40
2019-04-22T17:02:20.590Z,26.60
2019-04-22T17:06:23.841Z,26.20
2019-04-22T17:10:26.096Z,22.90
2019-04-22T17:14:38.779Z,21.40
2019-04-22T17:18:31.020Z,21.60
2019-04-22T17:22:33.587Z,21.80
2019-04-22T17:26:37.050Z,23.00
2019-04-22T17:30:39.443Z,22.20
2019-04-22T17:34:41.365Z,21.70
2019-04-22T17:38:52.011Z,21.30
2019-04-22T17:43:06.739Z,21.40
2019-04-22T17:47:27.181Z,20.10
2019-04-22T17:51:31.423Z,20.80
2019-04-22T17:55:41.540Z,19.70
2019-04-22T17:59:40.909Z,20.30
2019-04-22T18:03:29.112Z,20.10
2019-04-22T18:07:42.940Z,19.80
2019-04-22T18:11:50.992Z,19.80
2019-04-22T18:15:54.890Z,19.70
2019-04-22T18:19:52.222Z,19.20
2019-04-22T18:23:46.885Z,19.60
2019-04-22T18:28:10.445Z,18.70
2019-04-22T18:31:51.160Z,18.80
2019-04-22T18:36:06.814Z,18.70
2019-04-22T18:40:15.056Z,18.80
2019-04-22T18:44:19.890Z,18.40
2019-04-22T18:48:15.339Z,18.50
2019-04-22T18:52:28.106Z,18.30
2019-04-22T18:56:46.643Z,17.70
2019-04-22T19:00:36.327Z,17.90
2019-04-22T19:04:51.758Z,17.60
2019-04-22T19:09:10.653Z,17.70
2019-04-22T19:13:36.391Z,18.30
2019-04-22T19:17:29.340Z,18.30
2019-04-22T19:21:26.007Z,17.90
2019-04-22T19:25:11.909Z,17.60
2019-04-22T19:29:22.402Z,17.40
2019-04-22T19:37:24.902Z,17.20
2019-04-22T19:41:29.205Z,17.20
2019-04-22T19:45:34.303Z,17.30
2019-04-22T19:49:48.367Z,17.30
2019-04-22T19:53:40.726Z,16.70
2019-04-22T19:57:41.964Z,17.40
2019-04-22T20:02:00.958Z,17.20
2019-04-22T20:06:13.057Z,17.00
2019-04-22T20:10:16.203Z,16.10
2019-04-22T20:14:19.941Z,16.00
2019-04-22T20:18:41.812Z,16.40
2019-04-22T20:22:25.317Z,16.80
2019-04-22T20:26:17.967Z,16.10
2019-04-22T20:30:39.861Z,16.40
2019-04-22T20:34:40.319Z,16.20
2019-04-22T20:38:35.435Z,16.50
2019-04-22T20:46:42.179Z,16.00
2019-04-22T20:50:48.092Z,16.70
2019-04-22T20:54:44.593Z,15.80
2019-04-22T20:58:54.702Z,16.60
2019-04-22T21:02:46.180Z,17.00
2019-04-22T21:06:54.295Z,17.10
2019-04-22T21:10:51.015Z,16.60
2019-04-22T21:15:10.776Z,15.00
2019-04-22T21:19:04.380Z,15.80
2019-04-22T21:23:05.708Z,15.70
2019-04-22T21:27:18.278Z,15.40
2019-04-22T21:31:19.324Z,16.00
2019-04-22T21:35:31.384Z,15.90
2019-04-22T21:39:17.706Z,15.20
2019-04-22T21:43:24.231Z,14.80
2019-04-22T21:47:28.734Z,14.60
2019-04-22T21:51:31.716Z,14.20
2019-04-22T21:55:40.058Z,14.90
2019-04-22T21:59:37.172Z,15.60
2019-04-22T22:03:40.102Z,14.80
2019-04-22T22:07:26.851Z,15.30
2019-04-22T22:11:46.228Z,16.00
2019-04-22T22:15:47.481Z,14.90
2019-04-22T22:19:51.951Z,15.40
2019-04-22T22:23:59.405Z,14.90
2019-04-22T22:27:53.377Z,14.90
2019-04-22T22:32:05.355Z,15.60
2019-04-22T22:36:03.573Z,14.40
2019-04-22T22:39:54.384Z,16.00
2019-04-22T22:43:50.965Z,15.70
2019-04-22T22:48:14.354Z,15.70
2019-04-22T22:52:37.893Z,15.60
2019-04-22T22:56:17.336Z,14.70
2019-04-22T23:00:18.434Z,13.00
2019-04-22T23:04:29.596Z,12.80
2019-04-22T23:08:25.667Z,12.40
2019-04-22T23:12:39.268Z,12.70
2019-04-22T23:16:22.092Z,12.80
2019-04-22T23:20:18.587Z,12.80
2019-04-22T23:24:58.459Z,12.80
2019-04-22T23:28:57.708Z,13.10
2019-04-22T23:33:07.800Z,13.00
2019-04-22T23:37:21.682Z,12.80
2019-04-22T23:41:39.438Z,14.30
2019-04-22T23:45:40.300Z,14.40
2019-04-22T23:49:32.074Z,13.50
2019-04-22T23:57:48.871Z,14.60
